Sancti Spiritus, Cuba
Current Conditions -  °F | °C
As of 3:53 PM on Saturday 25 Oct 2014 (Local Time) from MUSC Reporting Station
Broken Clouds Broken Clouds  
Wind Chill: 81°   Ceiling: 4500
Heat Index: 86°   Visibility: 6mi
Dew Point: 75°   Wind: 14mph
Humidity: 84%   Direction: 20°NNE
Pressure: 29.85"   Gusts: NA
Location:  21.93°N, 79.44°W
Report Text: MUSC 251953Z 02012KT 360V060 9000 SCT025 BKN045 27/24 Q1011
Loading
Personal Weather Stations






























Interactive Weather Map
Tropical Storm Tracking
New forecast layout! Learn more

10-Day Weather Forecast

Advertisements
Track Severe Weather on mobile